Time;durP1;ratioP1;P1;durP2;ratioP2;P2;SDS_P1;SDS_P2;PMS_P1;PMS_P2;Temp;Humidity;BMP_temperature;BMP_pressure;BME280_temperature;BME280_humidity;BME280_pressure;Samples;Min_cycle;Max_cycle;Signal;HPM_P1;HPM_P2
2022/01/28 00:02:28;;;;;;;14.73;1.95;;;5.20;99.90;;;;;;5112744;28;20057;-76
2022/01/28 00:04:54;;;;;;;19.65;2.38;;;5.20;99.90;;;;;;5111725;28;20027;-75
2022/01/28 00:07:19;;;;;;;13.60;1.60;;;5.20;99.90;;;;;;5117631;28;20039;-75
2022/01/28 00:09:45;;;;;;;17.85;1.98;;;5.30;99.90;;;;;;5122088;28;20020;-75
2022/01/28 00:12:12;;;;;;;17.70;2.28;;;5.20;99.90;;;;;;5112721;28;20379;-75
2022/01/28 00:39:46;;;;;;;10.05;1.95;;;5.30;99.90;;;;;;5111621;28;20034;-75
2022/01/28 00:42:11;;;;;;;12.55;1.75;;;5.30;99.90;;;;;;5113102;28;20031;-75
2022/01/28 00:44:37;;;;;;;11.07;2.45;;;5.40;99.90;;;;;;5112726;28;20455;-75
2022/01/28 00:47:03;;;;;;;8.00;1.67;;;5.40;99.90;;;;;;5112439;28;20110;-75
2022/01/28 00:49:29;;;;;;;8.65;1.52;;;5.40;99.90;;;;;;5112898;28;20044;-75
2022/01/28 00:51:55;;;;;;;22.92;1.90;;;5.30;99.90;;;;;;5112853;28;20047;-75
2022/01/28 00:54:20;;;;;;;11.25;1.80;;;5.30;99.90;;;;;;5112581;28;20107;-75
2022/01/28 00:56:47;;;;;;;13.20;1.88;;;5.30;99.90;;;;;;5112634;28;20055;-75
2022/01/28 00:59:13;;;;;;;21.90;1.70;;;5.30;99.90;;;;;;5112735;28;20084;-74
2022/01/28 01:01:39;;;;;;;9.25;1.73;;;5.40;99.90;;;;;;5112009;28;20123;-74
2022/01/28 01:04:05;;;;;;;15.48;2.60;;;5.40;99.90;;;;;;5112897;28;20051;-75
2022/01/28 01:06:31;;;;;;;16.85;2.55;;;5.40;99.90;;;;;;5112491;28;20024;-75
2022/01/28 01:08:58;;;;;;;15.20;2.25;;;5.40;99.90;;;;;;5115422;28;20122;-75
2022/01/28 01:11:25;;;;;;;13.90;2.63;;;5.40;99.90;;;;;;5116187;28;20031;-74
2022/01/28 01:13:52;;;;;;;9.50;1.65;;;5.50;99.90;;;;;;5116733;28;20023;-75
2022/01/28 01:16:25;;;;;;;10.25;2.25;;;5.40;99.90;;;;;;5115354;28;20039;-75
2022/01/28 01:19:38;;;;;;;13.65;1.70;;;5.30;99.90;;;;;;5120224;27;20027;-75
2022/01/28 01:21:42;;;;;;;12.65;1.80;;;5.40;99.90;;;;;;5129932;27;20393;-74
2022/01/28 01:24:10;;;;;;;12.30;1.67;;;5.40;99.90;;;;;;5136227;27;20034;-75
2022/01/28 01:26:39;;;;;;;12.40;1.50;;;5.50;99.90;;;;;;5137008;27;20061;-74
2022/01/28 01:29:07;;;;;;;17.80;4.57;;;5.50;99.90;;;;;;5136044;27;20027;-75
2022/01/28 01:31:34;;;;;;;14.13;1.88;;;5.50;99.90;;;;;;5136447;27;20027;-74
2022/01/28 01:34:10;;;;;;;9.95;1.65;;;5.50;99.90;;;;;;5136245;27;20070;-76
2022/01/28 01:36:35;;;;;;;16.67;1.88;;;5.50;99.90;;;;;;5135221;27;20031;-76
2022/01/28 01:39:02;;;;;;;15.10;3.22;;;5.50;99.90;;;;;;5136121;27;20026;-76
2022/01/28 01:41:36;;;;;;;16.55;1.75;;;5.60;99.90;;;;;;5135483;27;20039;-76
2022/01/28 01:44:07;;;;;;;9.30;1.65;;;5.50;99.90;;;;;;5135101;27;20462;-75
2022/01/28 01:47:15;;;;;;;13.55;1.92;;;5.50;99.90;;;;;;5136329;27;20078;-76
2022/01/28 01:52:18;;;;;;;15.35;1.70;;;5.50;99.90;;;;;;5135878;27;20034;-75
2022/01/28 01:54:44;;;;;;;17.23;1.77;;;5.60;99.90;;;;;;5135830;27;20382;-75
2022/01/28 01:57:12;;;;;;;10.05;1.80;;;5.60;99.90;;;;;;5134780;27;20386;-75
2022/01/28 01:59:39;;;;;;;15.43;2.67;;;5.60;99.90;;;;;;5135918;27;20448;-76
2022/01/28 02:02:05;;;;;;;19.35;2.17;;;5.60;99.90;;;;;;5136464;27;20032;-75
2022/01/28 02:04:31;;;;;;;14.07;1.27;;;5.60;99.90;;;;;;5135665;27;20046;-75
2022/01/28 02:06:57;;;;;;;13.73;1.90;;;5.60;99.90;;;;;;5135746;27;20057;-75
2022/01/28 02:09:23;;;;;;;10.60;1.80;;;5.60;99.90;;;;;;5136811;27;20382;-75
2022/01/28 02:11:48;;;;;;;12.70;1.80;;;5.50;99.90;;;;;;5138357;27;20023;-75
2022/01/28 02:14:14;;;;;;;17.30;1.80;;;5.50;99.90;;;;;;5135322;27;20383;-75
2022/01/28 02:16:39;;;;;;;16.95;1.95;;;5.40;99.90;;;;;;5135567;27;20101;-75
2022/01/28 02:19:05;;;;;;;24.08;1.70;;;5.40;99.90;;;;;;5134663;27;20026;-75
2022/01/28 02:21:40;;;;;;;13.15;2.10;;;5.40;99.90;;;;;;5136567;27;20037;-75
2022/01/28 02:24:07;;;;;;;12.57;1.23;;;5.30;99.90;;;;;;5135651;27;20480;-76
2022/01/28 02:26:35;;;;;;;12.48;1.58;;;5.30;99.90;;;;;;5138350;27;20042;-76
2022/01/28 02:29:07;;;;;;;18.92;1.67;;;5.40;99.90;;;;;;5135510;27;20462;-75
2022/01/28 02:31:37;;;;;;;9.18;1.27;;;5.30;99.90;;;;;;5135184;27;20118;-76
2022/01/28 02:34:04;;;;;;;17.80;2.10;;;5.30;99.90;;;;;;5134322;27;20038;-76
2022/01/28 02:36:30;;;;;;;6.85;1.80;;;5.30;99.90;;;;;;5134170;27;20027;-75
2022/01/28 02:38:58;;;;;;;9.05;1.58;;;5.30;99.90;;;;;;5134677;27;20076;-75
2022/01/28 02:41:26;;;;;;;23.10;2.08;;;5.30;99.90;;;;;;5134483;27;20092;-76
2022/01/28 02:46:20;;;;;;;20.95;2.10;;;5.40;99.90;;;;;;5133579;27;20495;-76
2022/01/28 02:49:00;;;;;;;18.48;1.83;;;5.40;99.90;;;;;;5134761;27;20079;-75
2022/01/28 02:51:26;;;;;;;18.52;3.65;;;5.30;99.90;;;;;;5133978;27;20042;-76
2022/01/28 02:53:57;;;;;;;11.40;1.60;;;5.30;99.90;;;;;;5133617;27;20462;-76
2022/01/28 02:58:50;;;;;;;10.73;2.00;;;5.20;99.90;;;;;;5134646;27;20103;-75
2022/01/28 03:01:18;;;;;;;20.20;2.65;;;5.20;99.90;;;;;;5133306;27;20191;-76
2022/01/28 03:03:46;;;;;;;23.50;5.38;;;5.20;99.90;;;;;;5134473;27;20035;-76
2022/01/28 03:06:14;;;;;;;12.43;1.80;;;5.30;99.90;;;;;;5134442;27;20105;-76
2022/01/28 03:08:44;;;;;;;20.67;2.22;;;5.30;99.90;;;;;;5134189;27;20019;-76
2022/01/28 03:16:22;;;;;;;13.43;1.42;;;5.20;99.90;;;;;;5133783;27;19907;-76
2022/01/28 03:18:54;;;;;;;7.78;1.55;;;5.20;99.90;;;;;;5135180;27;20027;-76
2022/01/28 03:21:37;;;;;;;20.05;1.45;;;5.20;99.90;;;;;;5134343;27;20058;-75
2022/01/28 03:24:04;;;;;;;10.02;1.80;;;5.30;99.90;;;;;;5135302;27;20140;-75
2022/01/28 03:26:30;;;;;;;8.85;1.63;;;5.20;99.90;;;;;;5134014;27;20027;-76
2022/01/28 03:28:55;;;;;;;13.77;2.17;;;5.20;99.90;;;;;;5132943;27;20019;-76
2022/01/28 03:31:21;;;;;;;14.93;1.83;;;5.20;99.90;;;;;;5133209;27;20023;-76
2022/01/28 03:33:47;;;;;;;13.98;1.70;;;5.20;99.90;;;;;;5134058;27;20467;-76
2022/01/28 03:36:14;;;;;;;10.52;2.08;;;5.20;99.90;;;;;;5132789;27;20260;-76
2022/01/28 03:38:41;;;;;;;15.77;2.30;;;5.20;99.90;;;;;;5133872;27;20015;-75
2022/01/28 03:41:16;;;;;;;9.60;1.42;;;5.20;99.90;;;;;;5133307;27;20031;-75
2022/01/28 03:43:45;;;;;;;7.68;1.75;;;5.10;99.90;;;;;;5132953;27;20047;-75
2022/01/28 03:46:11;;;;;;;13.63;1.67;;;5.00;99.90;;;;;;5133337;27;20092;-75
2022/01/28 03:48:37;;;;;;;16.83;1.73;;;4.90;99.90;;;;;;5134061;27;20031;-75
2022/01/28 03:51:03;;;;;;;9.82;1.17;;;4.90;99.90;;;;;;5133082;27;20466;-75
2022/01/28 03:53:29;;;;;;;18.60;3.05;;;4.80;99.90;;;;;;5133181;27;20065;-75
2022/01/28 03:55:57;;;;;;;14.90;1.73;;;4.70;99.90;;;;;;5133641;27;20023;-75
2022/01/28 03:58:23;;;;;;;9.50;2.22;;;4.70;99.90;;;;;;5132599;27;20432;-75
2022/01/28 04:00:49;;;;;;;6.15;1.52;;;4.60;99.90;;;;;;5133378;27;20127;-75
2022/01/28 04:13:52;;;;;;;19.38;1.77;;;4.30;99.90;;;;;;5140476;27;20181;-75
2022/01/28 04:18:46;;;;;;;32.90;2.95;;;4.20;99.90;;;;;;5132363;28;20023;-75
2022/01/28 04:21:12;;;;;;;16.05;2.25;;;4.20;99.90;;;;;;5135259;27;20040;-75
2022/01/28 04:23:38;;;;;;;20.73;2.05;;;4.30;99.90;;;;;;5136841;27;20020;-75
2022/01/28 04:26:03;;;;;;;18.73;2.20;;;4.40;99.90;;;;;;5136455;28;20116;-75
2022/01/28 04:28:29;;;;;;;14.73;1.33;;;4.30;99.90;;;;;;5139222;27;20087;-76
2022/01/28 04:30:55;;;;;;;11.38;1.35;;;4.40;99.90;;;;;;5133524;28;20076;-75
2022/01/28 04:33:21;;;;;;;9.80;1.67;;;4.40;99.90;;;;;;5132308;28;20026;-75
2022/01/28 04:35:49;;;;;;;18.30;2.63;;;4.40;99.90;;;;;;5132696;27;20142;-76
2022/01/28 04:38:29;;;;;;;7.32;1.58;;;4.50;99.90;;;;;;5133299;27;20042;-75
2022/01/28 04:41:06;;;;;;;13.68;1.88;;;4.40;99.90;;;;;;5134309;27;20035;-76
2022/01/28 04:43:44;;;;;;;9.52;1.40;;;4.30;99.90;;;;;;5136416;27;20051;-75
2022/01/28 04:46:20;;;;;;;14.55;1.67;;;4.30;99.90;;;;;;5137038;27;20031;-75
2022/01/28 04:49:39;;;;;;;9.60;1.80;;;4.30;99.90;;;;;;5137759;27;20023;-74
2022/01/28 04:51:56;;;;;;;15.57;1.40;;;4.20;99.90;;;;;;5131475;27;20517;-75
2022/01/28 04:56:59;;;;;;;18.15;1.17;;;4.20;99.90;;;;;;5137165;27;20034;-74
2022/01/28 04:59:43;;;;;;;12.55;1.52;;;4.10;99.90;;;;;;5137100;27;20074;-74
2022/01/28 05:05:18;;;;;;;12.45;1.55;;;3.90;99.90;;;;;;5136968;27;20493;-75
2022/01/28 05:08:02;;;;;;;13.27;1.58;;;3.80;99.90;;;;;;5136370;27;20031;-75
2022/01/28 05:28:48;;;;;;;12.30;1.48;;;3.40;99.90;;;;;;5136008;27;20029;-74
2022/01/28 05:31:14;;;;;;;4.70;0.85;;;3.30;99.90;;;;;;5136202;27;20027;-75
2022/01/28 05:33:39;;;;;;;7.32;1.38;;;3.30;99.90;;;;;;5137049;27;20019;-73
2022/01/28 05:36:05;;;;;;;9.63;1.70;;;3.30;99.90;;;;;;5136121;27;20049;-75
2022/01/28 05:38:30;;;;;;;3.92;1.05;;;3.40;99.90;;;;;;5136581;27;20463;-75
2022/01/28 05:40:56;;;;;;;8.80;1.33;;;3.30;99.90;;;;;;5137315;27;20034;-74
2022/01/28 05:43:21;;;;;;;12.93;1.35;;;3.30;99.90;;;;;;5135599;27;20517;-74
2022/01/28 05:45:50;;;;;;;9.80;1.75;;;3.20;99.90;;;;;;5136656;27;20501;-74
2022/01/28 05:48:17;;;;;;;14.15;1.63;;;3.20;99.90;;;;;;5135937;27;20023;-74
2022/01/28 05:50:42;;;;;;;6.60;1.58;;;3.20;99.90;;;;;;5135124;27;20027;-74
2022/01/28 05:53:08;;;;;;;9.48;1.23;;;3.20;99.90;;;;;;5135430;27;20019;-74
2022/01/28 05:55:34;;;;;;;12.48;1.50;;;3.20;99.90;;;;;;5135934;27;20023;-74
2022/01/28 05:58:00;;;;;;;16.55;2.63;;;3.20;99.90;;;;;;5135278;27;20031;-75
2022/01/28 06:00:26;;;;;;;11.07;1.30;;;3.20;99.90;;;;;;5135335;27;20058;-75
2022/01/28 06:02:52;;;;;;;5.00;1.40;;;3.20;99.90;;;;;;5135288;27;20030;-75
2022/01/28 06:05:18;;;;;;;13.55;2.70;;;3.20;99.90;;;;;;5134474;27;20027;-75
2022/01/28 06:07:43;;;;;;;13.45;1.10;;;3.10;99.90;;;;;;5135487;27;20060;-75
2022/01/28 06:10:10;;;;;;;9.18;1.52;;;3.10;99.90;;;;;;5134371;27;20038;-75
2022/01/28 06:12:44;;;;;;;13.05;1.23;;;3.10;99.90;;;;;;5135422;27;20034;-75
2022/01/28 06:15:10;;;;;;;4.47;1.60;;;3.00;99.90;;;;;;5142667;27;20447;-76
2022/01/28 06:17:36;;;;;;;11.00;3.45;;;2.90;99.90;;;;;;5134806;27;20023;-74
2022/01/28 06:20:04;;;;;;;4.50;1.27;;;2.90;99.90;;;;;;5135307;27;20023;-76
2022/01/28 06:22:30;;;;;;;12.77;2.03;;;2.90;99.90;;;;;;5135857;27;20019;-76
2022/01/28 06:24:56;;;;;;;7.32;1.13;;;2.80;99.90;;;;;;5134743;27;20041;-75
2022/01/28 06:27:22;;;;;;;22.05;4.25;;;2.80;99.90;;;;;;5134677;27;20030;-76
2022/01/28 06:29:49;;;;;;;14.73;2.17;;;2.70;99.90;;;;;;5135901;27;20039;-76
2022/01/28 06:32:18;;;;;;;11.32;1.98;;;2.70;99.90;;;;;;5134993;27;20428;-76
2022/01/28 06:34:43;;;;;;;4.75;1.30;;;2.70;99.90;;;;;;5135919;27;20015;-76
2022/01/28 06:37:09;;;;;;;13.77;1.92;;;2.70;99.90;;;;;;5135345;27;20019;-75
2022/01/28 06:39:34;;;;;;;5.47;1.80;;;2.60;99.90;;;;;;5134356;27;20030;-75
2022/01/28 06:42:01;;;;;;;7.25;1.83;;;2.60;99.90;;;;;;5134992;27;20035;-75
2022/01/28 06:44:27;;;;;;;8.75;1.45;;;2.60;99.90;;;;;;5134976;27;20031;-74
2022/01/28 06:46:52;;;;;;;5.38;1.00;;;2.60;99.90;;;;;;5135184;27;20482;-75
2022/01/28 06:49:18;;;;;;;8.25;1.48;;;2.60;99.90;;;;;;5121028;27;20020;-75
2022/01/28 06:51:44;;;;;;;6.97;1.73;;;2.50;99.90;;;;;;5116254;27;20059;-74
2022/01/28 06:54:09;;;;;;;10.32;2.00;;;2.50;99.90;;;;;;5115396;27;20039;-75
2022/01/28 06:56:35;;;;;;;7.78;2.65;;;2.40;99.90;;;;;;5113433;27;20023;-74
2022/01/28 06:59:01;;;;;;;8.13;1.77;;;2.40;99.90;;;;;;5112371;27;20027;-75
2022/01/28 07:01:26;;;;;;;5.68;2.40;;;2.40;99.90;;;;;;5111314;28;20049;-75
2022/01/28 07:03:52;;;;;;;9.38;2.10;;;2.30;99.90;;;;;;5112622;27;20027;-75
2022/01/28 07:06:19;;;;;;;10.52;1.63;;;2.30;99.90;;;;;;5111548;28;20059;-75
2022/01/28 07:08:45;;;;;;;10.10;2.40;;;2.20;99.90;;;;;;5115776;27;20437;-75
2022/01/28 07:11:10;;;;;;;17.85;2.95;;;2.20;99.90;;;;;;5111779;28;20111;-75
2022/01/28 07:13:36;;;;;;;9.27;2.10;;;2.20;99.90;;;;;;5111125;28;20446;-75
2022/01/28 07:16:02;;;;;;;7.93;2.38;;;2.30;99.90;;;;;;5111857;28;20023;-75
2022/01/28 07:18:28;;;;;;;6.25;1.42;;;2.30;99.90;;;;;;5112474;28;20041;-76
2022/01/28 07:20:54;;;;;;;6.75;2.13;;;2.20;99.90;;;;;;5113447;28;20046;-75
2022/01/28 07:23:20;;;;;;;23.38;4.10;;;2.20;99.90;;;;;;5112688;28;20023;-74
2022/01/28 07:25:45;;;;;;;8.77;1.92;;;2.20;99.90;;;;;;5113392;27;20027;-75
2022/01/28 07:28:11;;;;;;;12.40;2.13;;;2.20;99.90;;;;;;5110989;28;20059;-74
2022/01/28 07:30:37;;;;;;;12.98;2.90;;;2.20;99.90;;;;;;5111947;28;20106;-74
2022/01/28 07:33:06;;;;;;;9.82;2.15;;;2.20;99.90;;;;;;5112575;28;20022;-75
2022/01/28 07:35:31;;;;;;;11.25;1.85;;;2.30;99.90;;;;;;5111675;28;20092;-74
2022/01/28 07:37:57;;;;;;;6.75;2.00;;;2.30;99.90;;;;;;5116939;27;20102;-78
2022/01/28 07:40:22;;;;;;;10.23;2.45;;;2.30;99.90;;;;;;5117193;27;20395;-81
2022/01/28 07:42:48;;;;;;;9.93;2.78;;;2.40;99.90;;;;;;5121642;27;20015;-81
2022/01/28 07:45:14;;;;;;;18.30;2.63;;;2.50;99.90;;;;;;5118403;27;20023;-82
2022/01/28 07:47:41;;;;;;;13.35;3.65;;;2.50;99.90;;;;;;5118950;27;20438;-83
2022/01/28 07:50:08;;;;;;;7.38;2.47;;;2.50;99.90;;;;;;5117797;27;20015;-83
2022/01/28 07:52:35;;;;;;;14.05;4.60;;;2.60;99.90;;;;;;5115776;28;20031;-84
2022/01/28 07:55:00;;;;;;;18.70;3.20;;;2.60;99.90;;;;;;5117922;28;20022;-83
2022/01/28 07:57:26;;;;;;;10.88;2.70;;;2.60;99.90;;;;;;5118324;27;20192;-83
2022/01/28 07:59:52;;;;;;;13.05;2.20;;;2.70;99.90;;;;;;5120241;27;20551;-83
2022/01/28 08:02:17;;;;;;;13.50;3.78;;;2.70;99.90;;;;;;5119396;27;20479;-82
2022/01/28 08:04:43;;;;;;;16.13;3.42;;;2.80;99.90;;;;;;5121763;28;20103;-82
2022/01/28 08:07:08;;;;;;;8.73;2.38;;;2.90;99.90;;;;;;5116657;28;20367;-82
2022/01/28 08:09:34;;;;;;;16.70;2.97;;;2.90;99.90;;;;;;5113958;28;20375;-82
2022/01/28 08:11:59;;;;;;;15.35;3.00;;;2.90;99.90;;;;;;5114827;28;20020;-81
2022/01/28 08:14:26;;;;;;;12.73;2.78;;;3.00;99.90;;;;;;5114693;28;20028;-85
2022/01/28 08:16:52;;;;;;;8.65;2.33;;;3.00;99.90;;;;;;5115365;28;20027;-83
2022/01/28 08:19:17;;;;;;;10.27;2.72;;;3.00;99.90;;;;;;5119580;28;20072;-84
2022/01/28 08:21:43;;;;;;;14.07;2.38;;;3.20;99.90;;;;;;5119032;28;20023;-85
2022/01/28 08:24:08;;;;;;;11.90;2.28;;;3.30;99.90;;;;;;5118334;28;20069;-85
2022/01/28 08:26:34;;;;;;;14.27;3.17;;;3.30;99.90;;;;;;5124990;27;20087;-83
2022/01/28 08:29:00;;;;;;;13.77;2.45;;;3.40;99.90;;;;;;5119709;28;20019;-86
2022/01/28 08:31:25;;;;;;;27.63;2.58;;;3.50;99.90;;;;;;5122589;28;20047;-84
2022/01/28 08:33:51;;;;;;;16.40;2.45;;;3.60;99.90;;;;;;5125173;28;20032;-84
2022/01/28 08:36:16;;;;;;;18.48;2.90;;;3.60;99.90;;;;;;5126791;28;20054;-80
2022/01/28 08:38:46;;;;;;;19.75;2.90;;;3.90;99.90;;;;;;5119239;28;20485;-81
2022/01/28 08:41:15;;;;;;;10.23;1.98;;;4.00;99.90;;;;;;5121770;28;20032;-80
2022/01/28 08:43:41;;;;;;;15.15;2.47;;;4.10;99.90;;;;;;5120982;28;20046;-84
2022/01/28 08:46:07;;;;;;;19.80;3.30;;;4.20;99.90;;;;;;5120923;28;20471;-84
2022/01/28 08:48:33;;;;;;;17.67;4.00;;;4.30;99.90;;;;;;5120315;28;20023;-85
2022/01/28 08:50:59;;;;;;;14.63;2.65;;;4.30;99.90;;;;;;5125193;28;20105;-85
2022/01/28 08:53:24;;;;;;;11.40;2.72;;;4.30;99.90;;;;;;5123478;28;20043;-80
2022/01/28 08:55:50;;;;;;;16.40;3.15;;;4.40;99.90;;;;;;5118119;28;20067;-78
2022/01/28 08:58:15;;;;;;;19.35;3.70;;;4.50;99.90;;;;;;5117936;28;20097;-82
2022/01/28 09:00:45;;;;;;;21.23;3.28;;;4.60;99.90;;;;;;5118461;28;20044;-83
2022/01/28 09:03:15;;;;;;;20.58;3.47;;;4.70;99.90;;;;;;5118860;28;20019;-82
2022/01/28 09:05:41;;;;;;;16.27;3.03;;;4.80;99.90;;;;;;5121764;28;20081;-84
2022/01/28 09:08:09;;;;;;;13.77;2.80;;;4.80;99.90;;;;;;5118888;28;20016;-84
2022/01/28 09:10:37;;;;;;;11.48;3.38;;;4.80;99.90;;;;;;5119651;28;20043;-82
2022/01/28 09:15:33;;;;;;;12.63;2.92;;;5.00;99.90;;;;;;5118712;28;20019;-82
2022/01/28 09:17:58;;;;;;;15.20;2.90;;;5.00;99.90;;;;;;5121402;28;20076;-83
2022/01/28 09:20:24;;;;;;;20.17;3.00;;;5.00;99.90;;;;;;5118395;28;20035;-82
2022/01/28 09:22:50;;;;;;;14.85;3.33;;;5.00;99.90;;;;;;5117856;28;20062;-75
2022/01/28 09:25:16;;;;;;;19.92;3.78;;;5.10;99.90;;;;;;5115966;28;20052;-80
2022/01/28 09:27:42;;;;;;;22.90;4.25;;;5.20;99.90;;;;;;5115898;28;20471;-77
2022/01/28 09:30:08;;;;;;;19.98;5.65;;;5.30;99.90;;;;;;5116400;28;20027;-78
2022/01/28 09:32:34;;;;;;;21.27;5.97;;;5.40;99.90;;;;;;5117486;28;20382;-78
2022/01/28 09:35:00;;;;;;;25.00;6.18;;;5.50;99.90;;;;;;5117174;28;20098;-78
2022/01/28 09:37:26;;;;;;;16.65;3.22;;;5.50;99.90;;;;;;5116673;28;20032;-81
2022/01/28 09:39:51;;;;;;;13.00;3.60;;;5.60;99.90;;;;;;5116402;28;20386;-79
2022/01/28 09:42:19;;;;;;;22.52;6.80;;;5.70;99.90;;;;;;5116061;28;20064;-79
2022/01/28 09:44:45;;;;;;;15.75;3.50;;;5.80;99.90;;;;;;5118381;27;20053;-76
2022/01/28 09:47:11;;;;;;;19.83;4.22;;;5.80;99.90;;;;;;5121200;27;20020;-77
2022/01/28 09:49:39;;;;;;;17.45;3.42;;;5.80;99.90;;;;;;5117260;28;20502;-79
2022/01/28 09:52:05;;;;;;;11.45;2.45;;;5.90;99.90;;;;;;5119442;27;20023;-77
2022/01/28 09:54:31;;;;;;;9.55;2.17;;;6.00;99.90;;;;;;5124896;27;20060;-78
2022/01/28 09:57:04;;;;;;;15.23;2.80;;;6.10;99.90;;;;;;5121613;27;20020;-79
2022/01/28 09:59:31;;;;;;;12.77;2.20;;;6.10;99.90;;;;;;5118928;28;20095;-78
2022/01/28 10:01:56;;;;;;;12.75;2.30;;;6.20;99.90;;;;;;5119185;28;20035;-79
2022/01/28 10:04:22;;;;;;;7.95;2.58;;;6.30;99.90;;;;;;5116387;28;20033;-78
2022/01/28 10:06:49;;;;;;;18.23;2.90;;;6.40;99.90;;;;;;5118569;28;20051;-77
2022/01/28 10:09:18;;;;;;;17.10;4.65;;;6.40;99.90;;;;;;5116694;28;20451;-79
2022/01/28 10:11:46;;;;;;;16.92;3.30;;;6.50;99.90;;;;;;5117769;28;20031;-78
2022/01/28 10:14:18;;;;;;;15.13;2.58;;;6.60;99.90;;;;;;5116224;28;20475;-78
2022/01/28 10:17:01;;;;;;;13.15;2.72;;;6.60;99.90;;;;;;5116547;28;20035;-80
2022/01/28 10:19:37;;;;;;;10.38;2.13;;;6.70;99.90;;;;;;5116759;28;20028;-79
2022/01/28 10:22:15;;;;;;;14.52;2.30;;;6.90;99.90;;;;;;5114918;28;20043;-79
2022/01/28 10:24:43;;;;;;;18.48;2.53;;;6.90;99.90;;;;;;5114972;28;20020;-80
2022/01/28 10:27:09;;;;;;;17.98;2.40;;;7.00;99.90;;;;;;5116102;28;20479;-79
2022/01/28 10:29:42;;;;;;;18.88;3.25;;;7.10;99.90;;;;;;5117229;28;20028;-79
2022/01/28 10:32:17;;;;;;;12.50;2.50;;;7.10;99.90;;;;;;5116195;28;20034;-79
2022/01/28 10:34:47;;;;;;;13.70;2.28;;;7.20;99.90;;;;;;5116770;28;20103;-78
2022/01/28 10:37:29;;;;;;;12.65;3.35;;;7.20;99.90;;;;;;5116356;28;20028;-79
2022/01/28 10:39:57;;;;;;;14.63;2.50;;;7.30;99.90;;;;;;5115168;28;20043;-78
2022/01/28 10:42:25;;;;;;;10.77;2.53;;;7.30;99.90;;;;;;5115859;28;20501;-78
2022/01/28 10:44:55;;;;;;;7.78;2.10;;;7.40;99.90;;;;;;5116063;28;20019;-79
2022/01/28 10:47:40;;;;;;;12.40;1.40;;;7.40;99.90;;;;;;5116547;28;20034;-78
2022/01/28 10:50:23;;;;;;;14.13;2.15;;;7.50;99.90;;;;;;5116939;28;20281;-79
2022/01/28 10:53:09;;;;;;;8.38;1.67;;;7.60;99.90;;;;;;5115905;28;20030;-78
2022/01/28 10:55:54;;;;;;;13.32;2.15;;;7.50;99.90;;;;;;5116615;28;20459;-78
2022/01/28 10:58:26;;;;;;;11.50;2.78;;;7.50;99.90;;;;;;5115430;28;20474;-78
2022/01/28 11:00:54;;;;;;;19.75;2.10;;;7.50;99.90;;;;;;5114911;28;20060;-78
2022/01/28 11:03:26;;;;;;;13.00;2.95;;;7.60;99.90;;;;;;5119469;27;20023;-71
2022/01/28 11:05:59;;;;;;;15.80;3.47;;;7.60;99.90;;;;;;5117079;27;20090;-71
2022/01/28 11:08:27;;;;;;;14.32;3.58;;;7.70;99.90;;;;;;5116730;27;20099;-80
2022/01/28 11:10:56;;;;;;;22.23;4.10;;;8.00;99.90;;;;;;5132443;27;20360;-79
2022/01/28 11:13:22;;;;;;;19.55;3.05;;;8.00;99.90;;;;;;5114764;28;20020;-79
2022/01/28 11:15:48;;;;;;;21.33;3.53;;;8.10;99.90;;;;;;5115101;28;20028;-80
2022/01/28 11:18:15;;;;;;;19.90;3.85;;;8.10;99.90;;;;;;5114931;27;20059;-73
2022/01/28 11:20:57;;;;;;;16.15;3.00;;;8.10;99.90;;;;;;5115004;28;20426;-81
2022/01/28 11:23:31;;;;;;;16.55;3.17;;;8.10;99.90;;;;;;5115093;28;20073;-80
2022/01/28 11:25:57;;;;;;;20.17;4.28;;;8.20;99.90;;;;;;5116037;28;20476;-81
2022/01/28 11:28:47;;;;;;;7.80;2.35;;;8.20;99.90;;;;;;5114431;28;20011;-79
2022/01/28 11:31:14;;;;;;;15.07;3.40;;;8.30;99.90;;;;;;5115684;28;20032;-80
2022/01/28 11:33:48;;;;;;;14.65;3.30;;;8.40;99.90;;;;;;5115031;28;20103;-80
2022/01/28 11:36:31;;;;;;;10.63;2.80;;;8.50;99.90;;;;;;5114838;28;20035;-80
2022/01/28 11:39:01;;;;;;;20.25;3.25;;;8.70;99.90;;;;;;5115158;28;20051;-80
2022/01/28 11:41:27;;;;;;;14.30;2.40;;;8.70;99.90;;;;;;5113687;28;20067;-79
2022/01/28 11:43:55;;;;;;;17.00;2.85;;;8.70;99.90;;;;;;5114744;28;20081;-79
2022/01/28 11:46:20;;;;;;;15.07;2.60;;;8.70;99.90;;;;;;5114803;28;20059;-79
2022/01/28 11:48:52;;;;;;;18.52;2.45;;;8.80;99.90;;;;;;5117038;27;20023;-80
2022/01/28 11:51:22;;;;;;;11.50;2.40;;;8.90;99.90;;;;;;5117546;27;20112;-81
2022/01/28 11:53:56;;;;;;;6.93;2.40;;;8.90;99.90;;;;;;5122571;28;20038;-80
2022/01/28 11:56:27;;;;;;;13.35;2.45;;;9.00;99.90;;;;;;5119808;27;20463;-80
2022/01/28 11:59:00;;;;;;;9.02;2.13;;;8.90;99.90;;;;;;5114499;28;20023;-79
2022/01/28 12:01:49;;;;;;;10.95;2.42;;;8.80;99.90;;;;;;5116190;28;21017;-80
2022/01/28 12:04:29;;;;;;;12.50;2.72;;;8.90;99.90;;;;;;5108266;28;20488;-81
2022/01/28 12:07:03;;;;;;;10.50;2.45;;;8.90;99.90;;;;;;5114273;28;20027;-80
2022/01/28 12:09:30;;;;;;;14.00;2.97;;;9.00;99.90;;;;;;5116523;28;20042;-80
2022/01/28 12:11:57;;;;;;;15.90;2.92;;;9.10;99.90;;;;;;5113514;28;20020;-80
2022/01/28 12:15:01;;;;;;;16.50;4.25;;;9.30;99.90;;;;;;5116541;28;20055;-77
2022/01/28 12:17:33;;;;;;;23.15;5.18;;;9.40;99.90;;;;;;5114162;28;20031;-79
2022/01/28 12:20:09;;;;;;;20.45;3.55;;;9.50;99.90;;;;;;5115441;28;20084;-81
2022/01/28 12:22:35;;;;;;;19.85;3.45;;;9.50;99.90;;;;;;5116102;28;20093;-78
2022/01/28 12:25:00;;;;;;;18.58;3.67;;;9.50;99.90;;;;;;5127133;27;20470;-80
2022/01/28 12:27:33;;;;;;;22.83;4.18;;;9.40;99.90;;;;;;5132867;28;20282;-80
2022/01/28 12:30:00;;;;;;;15.27;3.40;;;9.40;99.90;;;;;;5142016;28;20416;-80
2022/01/28 12:32:26;;;;;;;14.55;4.70;;;9.40;99.90;;;;;;5135210;27;20324;-80
2022/01/28 12:34:53;;;;;;;17.38;3.25;;;9.50;99.90;;;;;;5137394;28;20015;-81
2022/01/28 12:37:22;;;;;;;12.43;3.30;;;9.50;99.90;;;;;;5144265;28;20035;-80
2022/01/28 12:40:02;;;;;;;11.73;3.25;;;9.50;99.90;;;;;;5147393;27;20328;-81
2022/01/28 12:42:32;;;;;;;10.73;3.37;;;9.30;99.90;;;;;;5135782;27;20031;-79
2022/01/28 12:45:00;;;;;;;12.07;3.55;;;9.30;99.90;;;;;;5127891;27;20352;-79
2022/01/28 12:47:31;;;;;;;20.00;3.70;;;9.30;99.90;;;;;;5129952;28;20046;-82
2022/01/28 12:50:03;;;;;;;11.05;3.22;;;9.20;99.90;;;;;;5135223;27;20031;-80
2022/01/28 12:52:36;;;;;;;21.15;4.40;;;9.20;99.90;;;;;;5128394;28;20390;-81
2022/01/28 12:55:02;;;;;;;13.20;3.97;;;9.20;99.90;;;;;;5114609;28;20027;-78
2022/01/28 12:57:28;;;;;;;14.38;3.55;;;9.20;99.90;;;;;;5113248;28;20108;-79
2022/01/28 12:59:54;;;;;;;15.52;3.10;;;9.10;99.90;;;;;;5113315;28;20428;-79
2022/01/28 13:02:20;;;;;;;9.48;3.10;;;9.20;99.90;;;;;;5115596;28;20068;-79
2022/01/28 13:04:53;;;;;;;14.15;3.50;;;9.30;99.90;;;;;;5117892;28;20038;-79
2022/01/28 13:10:04;;;;;;;18.13;3.80;;;9.40;99.90;;;;;;5118255;28;20080;-80
2022/01/28 13:12:31;;;;;;;10.30;3.33;;;9.40;99.90;;;;;;5117534;28;20467;-79
2022/01/28 13:15:12;;;;;;;8.45;2.58;;;9.50;99.90;;;;;;5118454;28;20044;-80
2022/01/28 13:17:38;;;;;;;;;;;9.60;99.90;;;;;;5119182;28;20540;-80
2022/01/28 13:20:09;;;;;;;5.15;2.70;;;9.60;99.90;;;;;;5119378;28;20331;-80
2022/01/28 13:22:36;;;;;;;12.30;2.53;;;9.80;99.90;;;;;;5118644;28;20027;-81
2022/01/28 13:25:18;;;;;;;12.60;2.58;;;9.90;99.90;;;;;;5118907;28;20455;-81
2022/01/28 13:27:47;;;;;;;14.73;2.85;;;9.90;99.90;;;;;;5118978;28;20028;-81
2022/01/28 13:30:15;;;;;;;17.95;5.05;;;9.90;99.90;;;;;;5118259;28;20038;-81
2022/01/28 13:32:46;;;;;;;9.80;3.30;;;9.90;99.90;;;;;;5118055;28;20030;-81
2022/01/28 13:35:19;;;;;;;11.43;3.58;;;9.90;99.90;;;;;;5118610;28;20022;-81
2022/01/28 13:37:51;;;;;;;12.13;3.10;;;9.90;99.90;;;;;;5119353;28;20027;-82
2022/01/28 13:40:29;;;;;;;14.02;2.65;;;9.90;99.90;;;;;;5119177;28;20024;-81
2022/01/28 13:43:09;;;;;;;12.88;3.60;;;9.90;99.90;;;;;;5120353;28;20502;-80
2022/01/28 13:45:43;;;;;;;6.00;1.70;;;9.90;99.90;;;;;;5118892;28;20073;-80
2022/01/28 13:48:21;;;;;;;12.18;3.10;;;9.90;99.90;;;;;;5118394;28;20067;-81
2022/01/28 13:50:50;;;;;;;10.18;2.47;;;9.90;99.90;;;;;;5119577;28;20023;-80
2022/01/28 13:56:02;;;;;;;10.07;2.70;;;9.80;99.90;;;;;;5117815;28;20038;-82
2022/01/28 13:58:28;;;;;;;12.27;2.42;;;9.80;99.90;;;;;;5120387;28;20102;-81
2022/01/28 14:00:55;;;;;;;10.90;2.33;;;9.70;99.90;;;;;;5118976;28;20082;-81
2022/01/28 14:03:26;;;;;;;10.70;2.72;;;9.60;99.90;;;;;;5118848;28;20024;-80
2022/01/28 14:06:00;;;;;;;12.40;2.55;;;9.50;99.90;;;;;;5119237;28;20020;-81
2022/01/28 14:08:49;;;;;;;9.60;2.05;;;9.50;99.90;;;;;;5116743;28;20027;-81
2022/01/28 14:11:17;;;;;;;11.25;2.30;;;9.40;99.90;;;;;;5115988;28;20034;-80
2022/01/28 14:13:43;;;;;;;11.55;2.00;;;9.30;99.90;;;;;;5117252;28;20031;-78
2022/01/28 14:16:14;;;;;;;10.57;2.40;;;9.30;99.90;;;;;;5116402;28;20023;-79
2022/01/28 14:18:40;;;;;;;8.82;2.45;;;9.30;99.90;;;;;;5118233;28;20084;-80
2022/01/28 14:21:06;;;;;;;11.57;2.40;;;9.30;99.90;;;;;;5118226;28;20027;-80
2022/01/28 14:23:42;;;;;;;8.20;2.13;;;9.30;99.90;;;;;;5117088;28;20024;-80